AAL212 KMEM-KBNA
Flight info
| Callsign | AAL212 |
|---|---|
| Flight time | 0h 37m |
| Altitude | 25000 |
| Route | GOETZ7 DIYAB CHSNE CHSNE3 |
| Aircraft | A319/M-SDE3FGHIRWY/LB1 |
Departure
| Time | 2026-05-05 23:53 |
|---|---|
| Airport | Memphis International Airport (KMEM) |
Arrival
| Time | 2026-05-06 00:31 |
|---|---|
| Airport | Nashville International Airport (KBNA) |
| Time | Latitude | Longitude | Altitude | Speed | Heading |
|---|---|---|---|---|---|
| 2026-05-05 23:26 | 35.04175 | -89.97994 | 329 ft | 0 kts | 222° |
| 2026-05-05 23:31 | 35.04179 | -89.97989 | 329 ft | 0 kts | 222° |
| 2026-05-05 23:42 | 35.04193 | -89.97977 | 330 ft | 4 kts | 185° |
| 2026-05-05 23:42 | 35.04212 | -89.97987 | 326 ft | 4 kts | 130° |
| 2026-05-05 23:42 | 35.04222 | -89.98002 | 330 ft | 0 kts | 134° |
| 2026-05-05 23:46 | 35.04220 | -89.97998 | 329 ft | 0 kts | 134° |
| 2026-05-05 23:47 | 35.04219 | -89.97997 | 329 ft | 1 kts | 134° |
| 2026-05-05 23:47 | 35.04211 | -89.97969 | 328 ft | 6 kts | 86° |
| 2026-05-05 23:47 | 35.04210 | -89.97918 | 330 ft | 7 kts | 103° |
| 2026-05-05 23:47 | 35.04193 | -89.97841 | 328 ft | 11 kts | 98° |
| 2026-05-05 23:48 | 35.04207 | -89.97752 | 327 ft | 11 kts | 48° |
| 2026-05-05 23:48 | 35.04285 | -89.97744 | 326 ft | 13 kts | 358° |
| 2026-05-05 23:48 | 35.04382 | -89.97746 | 326 ft | 15 kts | 359° |
| 2026-05-05 23:48 | 35.04483 | -89.97748 | 328 ft | 14 kts | 359° |
| 2026-05-05 23:49 | 35.04581 | -89.97750 | 324 ft | 14 kts | 359° |
| 2026-05-05 23:49 | 35.04682 | -89.97752 | 325 ft | 14 kts | 359° |
| 2026-05-05 23:49 | 35.04780 | -89.97754 | 327 ft | 14 kts | 359° |
| 2026-05-05 23:49 | 35.04864 | -89.97756 | 325 ft | 11 kts | 359° |
| 2026-05-05 23:50 | 35.04938 | -89.97757 | 325 ft | 10 kts | 359° |
| 2026-05-05 23:50 | 35.05010 | -89.97758 | 326 ft | 10 kts | 359° |
| 2026-05-05 23:50 | 35.05081 | -89.97760 | 324 ft | 11 kts | 359° |
| 2026-05-05 23:50 | 35.05170 | -89.97762 | 325 ft | 13 kts | 359° |
| 2026-05-05 23:51 | 35.05260 | -89.97764 | 328 ft | 13 kts | 359° |
| 2026-05-05 23:51 | 35.05320 | -89.97765 | 327 ft | 0 kts | 359° |
| 2026-05-05 23:51 | 35.05364 | -89.97776 | 326 ft | 10 kts | 348° |
| 2026-05-05 23:52 | 35.05432 | -89.97775 | 329 ft | 10 kts | 32° |
| 2026-05-05 23:52 | 35.05447 | -89.97691 | 326 ft | 13 kts | 90° |
| 2026-05-05 23:52 | 35.05403 | -89.97616 | 322 ft | 12 kts | 175° |
| 2026-05-05 23:52 | 35.05311 | -89.97614 | 323 ft | 24 kts | 179° |
| 2026-05-05 23:53 | 35.04865 | -89.97606 | 323 ft | 101 kts | 179° |
| 2026-05-05 23:53 | 35.03957 | -89.97587 | 333 ft | 157 kts | 179° |
| 2026-05-05 23:53 | 35.02827 | -89.97572 | 873 ft | 167 kts | 179° |
| 2026-05-05 23:53 | 35.01654 | -89.97521 | 1515 ft | 175 kts | 179° |
| 2026-05-05 23:54 | 35.00405 | -89.97452 | 2157 ft | 184 kts | 179° |
| 2026-05-05 23:54 | 34.99094 | -89.97379 | 2796 ft | 193 kts | 178° |
| 2026-05-05 23:54 | 34.97760 | -89.96984 | 3445 ft | 204 kts | 161° |
| 2026-05-05 23:54 | 34.96391 | -89.96324 | 4085 ft | 218 kts | 161° |
| 2026-05-05 23:55 | 34.94918 | -89.95627 | 4734 ft | 237 kts | 162° |
| 2026-05-05 23:55 | 34.93480 | -89.94477 | 5374 ft | 263 kts | 135° |
| 2026-05-05 23:55 | 34.92710 | -89.92390 | 6005 ft | 281 kts | 109° |
| 2026-05-05 23:55 | 34.92451 | -89.89992 | 6637 ft | 289 kts | 99° |
| 2026-05-05 23:56 | 34.92391 | -89.87513 | 7265 ft | 296 kts | 96° |
| 2026-05-05 23:56 | 34.92580 | -89.85010 | 7888 ft | 308 kts | 80° |
| 2026-05-05 23:56 | 34.93331 | -89.82534 | 8517 ft | 317 kts | 65° |
| 2026-05-05 23:56 | 34.94473 | -89.80210 | 9147 ft | 322 kts | 59° |
| 2026-05-05 23:57 | 34.95632 | -89.77854 | 9777 ft | 326 kts | 60° |
| 2026-05-05 23:57 | 34.96775 | -89.75443 | 10405 ft | 331 kts | 60° |
| 2026-05-05 23:57 | 34.97931 | -89.72963 | 11042 ft | 344 kts | 59° |
| 2026-05-05 23:57 | 34.99131 | -89.70364 | 11674 ft | 358 kts | 59° |
| 2026-05-05 23:58 | 35.00375 | -89.67677 | 12309 ft | 370 kts | 58° |
| 2026-05-05 23:58 | 35.01666 | -89.64903 | 12945 ft | 380 kts | 58° |
| 2026-05-05 23:58 | 35.02985 | -89.62082 | 13575 ft | 385 kts | 58° |
| 2026-05-05 23:58 | 35.04320 | -89.59240 | 14200 ft | 388 kts | 57° |
| 2026-05-05 23:59 | 35.05669 | -89.56373 | 14826 ft | 392 kts | 57° |
| 2026-05-05 23:59 | 35.07035 | -89.53469 | 15455 ft | 395 kts | 57° |
| 2026-05-05 23:59 | 35.08386 | -89.50589 | 16076 ft | 398 kts | 57° |
| 2026-05-05 23:59 | 35.09767 | -89.47641 | 16705 ft | 402 kts | 57° |
| 2026-05-06 00:00 | 35.11155 | -89.44668 | 17333 ft | 405 kts | 57° |
| 2026-05-06 00:00 | 35.12552 | -89.41668 | 17958 ft | 408 kts | 57° |
| 2026-05-06 00:00 | 35.13961 | -89.38633 | 18588 ft | 412 kts | 57° |
| 2026-05-06 00:00 | 35.15383 | -89.35579 | 19215 ft | 416 kts | 56° |
| 2026-05-06 00:01 | 35.16821 | -89.32495 | 19845 ft | 420 kts | 56° |
| 2026-05-06 00:01 | 35.18269 | -89.29380 | 20473 ft | 423 kts | 56° |
| 2026-05-06 00:01 | 35.19727 | -89.26238 | 21100 ft | 427 kts | 57° |
| 2026-05-06 00:01 | 35.21166 | -89.23036 | 21726 ft | 432 kts | 61° |
| 2026-05-06 00:02 | 35.22265 | -89.19588 | 22355 ft | 438 kts | 70° |
| 2026-05-06 00:02 | 35.23171 | -89.16019 | 22971 ft | 441 kts | 70° |
| 2026-05-06 00:02 | 35.24084 | -89.12472 | 23515 ft | 445 kts | 69° |
| 2026-05-06 00:02 | 35.25233 | -89.08954 | 24066 ft | 446 kts | 62° |
| 2026-05-06 00:03 | 35.26512 | -89.05481 | 24601 ft | 450 kts | 62° |
| 2026-05-06 00:03 | 35.27804 | -89.01954 | 24802 ft | 457 kts | 62° |
| 2026-05-06 00:03 | 35.29116 | -88.98358 | 24856 ft | 471 kts | 62° |
| 2026-05-06 00:03 | 35.30471 | -88.94643 | 24845 ft | 486 kts | 62° |
| 2026-05-06 00:04 | 35.31864 | -88.90811 | 24854 ft | 497 kts | 63° |
| 2026-05-06 00:04 | 35.33268 | -88.86921 | 24852 ft | 500 kts | 63° |
| 2026-05-06 00:04 | 35.34655 | -88.83072 | 24852 ft | 501 kts | 63° |
| 2026-05-06 00:04 | 35.36060 | -88.79166 | 24862 ft | 502 kts | 63° |
| 2026-05-06 00:05 | 35.38878 | -88.71351 | 24856 ft | 502 kts | 63° |
| 2026-05-06 00:05 | 35.40287 | -88.67431 | 24857 ft | 502 kts | 63° |
| 2026-05-06 00:05 | 35.41692 | -88.63518 | 24863 ft | 502 kts | 63° |
| 2026-05-06 00:06 | 35.43095 | -88.59602 | 24858 ft | 502 kts | 63° |
| 2026-05-06 00:06 | 35.44499 | -88.55682 | 24852 ft | 502 kts | 63° |
| 2026-05-06 00:06 | 35.45898 | -88.51772 | 24850 ft | 502 kts | 63° |
| 2026-05-06 00:06 | 35.47302 | -88.47849 | 24852 ft | 502 kts | 63° |
| 2026-05-06 00:07 | 35.48686 | -88.43976 | 24852 ft | 502 kts | 63° |
| 2026-05-06 00:07 | 35.50086 | -88.40053 | 24849 ft | 502 kts | 63° |
| 2026-05-06 00:07 | 35.51489 | -88.36117 | 24853 ft | 503 kts | 63° |
| 2026-05-06 00:07 | 35.52886 | -88.32187 | 24656 ft | 503 kts | 63° |
| 2026-05-06 00:08 | 35.54280 | -88.28259 | 24154 ft | 500 kts | 63° |
| 2026-05-06 00:08 | 35.55663 | -88.24350 | 23652 ft | 496 kts | 63° |
| 2026-05-06 00:08 | 35.57031 | -88.20483 | 23151 ft | 492 kts | 63° |
| 2026-05-06 00:08 | 35.58390 | -88.16649 | 22659 ft | 488 kts | 63° |
| 2026-05-06 00:09 | 35.59742 | -88.12841 | 22150 ft | 484 kts | 63° |
| 2026-05-06 00:09 | 35.61063 | -88.09100 | 21653 ft | 471 kts | 63° |
| 2026-05-06 00:09 | 35.62350 | -88.05434 | 21150 ft | 464 kts | 63° |
| 2026-05-06 00:09 | 35.63619 | -88.01814 | 20651 ft | 458 kts | 63° |
| 2026-05-06 00:10 | 35.64859 | -87.98284 | 20161 ft | 454 kts | 63° |
| 2026-05-06 00:10 | 35.66107 | -87.94738 | 19655 ft | 450 kts | 63° |
| 2026-05-06 00:10 | 35.67343 | -87.91232 | 19158 ft | 445 kts | 63° |
| 2026-05-06 00:10 | 35.68570 | -87.87749 | 18657 ft | 440 kts | 64° |
| 2026-05-06 00:11 | 35.69780 | -87.84309 | 18158 ft | 436 kts | 64° |
| 2026-05-06 00:11 | 35.70975 | -87.80897 | 17648 ft | 432 kts | 64° |
| 2026-05-06 00:11 | 35.72154 | -87.77518 | 17156 ft | 428 kts | 64° |
| 2026-05-06 00:11 | 35.73320 | -87.74167 | 16656 ft | 424 kts | 64° |
| 2026-05-06 00:12 | 35.74480 | -87.70839 | 16152 ft | 421 kts | 64° |
| 2026-05-06 00:12 | 35.75612 | -87.67585 | 15656 ft | 417 kts | 64° |
| 2026-05-06 00:12 | 35.76766 | -87.64271 | 15152 ft | 414 kts | 64° |
| 2026-05-06 00:12 | 35.77882 | -87.61067 | 14658 ft | 411 kts | 64° |
| 2026-05-06 00:13 | 35.79008 | -87.57842 | 14157 ft | 408 kts | 64° |
| 2026-05-06 00:13 | 35.80113 | -87.54666 | 13635 ft | 398 kts | 65° |
| 2026-05-06 00:13 | 35.81178 | -87.51579 | 13112 ft | 390 kts | 65° |
| 2026-05-06 00:13 | 35.82232 | -87.48522 | 12587 ft | 386 kts | 65° |
| 2026-05-06 00:14 | 35.83281 | -87.45487 | 12127 ft | 382 kts | 65° |
| 2026-05-06 00:14 | 35.84335 | -87.42484 | 11816 ft | 381 kts | 65° |
| 2026-05-06 00:14 | 35.85386 | -87.39514 | 11494 ft | 379 kts | 65° |
| 2026-05-06 00:14 | 35.86440 | -87.36542 | 11165 ft | 378 kts | 66° |
| 2026-05-06 00:15 | 35.87489 | -87.33578 | 10841 ft | 377 kts | 66° |
| 2026-05-06 00:15 | 35.88532 | -87.30619 | 10513 ft | 375 kts | 66° |
| 2026-05-06 00:15 | 35.89565 | -87.27678 | 10371 ft | 374 kts | 67° |
| 2026-05-06 00:15 | 35.90580 | -87.24785 | 10348 ft | 359 kts | 67° |
| 2026-05-06 00:16 | 35.91533 | -87.22063 | 10316 ft | 342 kts | 67° |
| 2026-05-06 00:16 | 35.92456 | -87.19430 | 10289 ft | 330 kts | 68° |
| 2026-05-06 00:16 | 35.93362 | -87.16836 | 10262 ft | 328 kts | 68° |
| 2026-05-06 00:16 | 35.94260 | -87.14259 | 10234 ft | 327 kts | 68° |
| 2026-05-06 00:17 | 35.95159 | -87.11680 | 10208 ft | 327 kts | 68° |
| 2026-05-06 00:17 | 35.96056 | -87.09106 | 10129 ft | 327 kts | 68° |
| 2026-05-06 00:17 | 35.96953 | -87.06529 | 9989 ft | 325 kts | 68° |
| 2026-05-06 00:17 | 35.97841 | -87.03976 | 10001 ft | 324 kts | 68° |
| 2026-05-06 00:18 | 35.98630 | -87.01705 | 9996 ft | 324 kts | 68° |
| 2026-05-06 00:18 | 35.99518 | -86.99145 | 9996 ft | 324 kts | 68° |
| 2026-05-06 00:18 | 36.00405 | -86.96591 | 9996 ft | 324 kts | 68° |
| 2026-05-06 00:18 | 36.01298 | -86.94022 | 9998 ft | 325 kts | 69° |
| 2026-05-06 00:19 | 36.02180 | -86.91476 | 9988 ft | 329 kts | 67° |
| 2026-05-06 00:19 | 36.03082 | -86.88867 | 9878 ft | 331 kts | 67° |
| 2026-05-06 00:19 | 36.03977 | -86.86282 | 9672 ft | 323 kts | 67° |
| 2026-05-06 00:19 | 36.05097 | -86.83927 | 9473 ft | 315 kts | 50° |
| 2026-05-06 00:20 | 36.06631 | -86.82070 | 9268 ft | 305 kts | 33° |
| 2026-05-06 00:20 | 36.08444 | -86.80782 | 9062 ft | 298 kts | 18° |
| 2026-05-06 00:20 | 36.10372 | -86.79986 | 8826 ft | 288 kts | 12° |
| 2026-05-06 00:20 | 36.12266 | -86.79248 | 8603 ft | 282 kts | 12° |
| 2026-05-06 00:21 | 36.14114 | -86.78524 | 8377 ft | 276 kts | 12° |
| 2026-05-06 00:21 | 36.15929 | -86.77815 | 8150 ft | 272 kts | 12° |
| 2026-05-06 00:21 | 36.17704 | -86.77138 | 7877 ft | 271 kts | 12° |
| 2026-05-06 00:21 | 36.19511 | -86.76467 | 7577 ft | 271 kts | 12° |
| 2026-05-06 00:22 | 36.21318 | -86.75802 | 7279 ft | 271 kts | 12° |
| 2026-05-06 00:22 | 36.23120 | -86.75138 | 6974 ft | 271 kts | 12° |
| 2026-05-06 00:22 | 36.24927 | -86.74470 | 6672 ft | 271 kts | 12° |
| 2026-05-06 00:22 | 36.26729 | -86.73800 | 6374 ft | 270 kts | 13° |
| 2026-05-06 00:23 | 36.28524 | -86.73132 | 6071 ft | 270 kts | 13° |
| 2026-05-06 00:23 | 36.30325 | -86.72462 | 5774 ft | 269 kts | 13° |
| 2026-05-06 00:23 | 36.32118 | -86.71796 | 5475 ft | 268 kts | 13° |
| 2026-05-06 00:23 | 36.33879 | -86.71141 | 5146 ft | 268 kts | 14° |
| 2026-05-06 00:24 | 36.35673 | -86.70469 | 4755 ft | 271 kts | 14° |
| 2026-05-06 00:24 | 36.37405 | -86.69570 | 4335 ft | 272 kts | 36° |
| 2026-05-06 00:24 | 36.38632 | -86.67843 | 3943 ft | 267 kts | 66° |
| 2026-05-06 00:24 | 36.39002 | -86.65684 | 3773 ft | 248 kts | 98° |
| 2026-05-06 00:25 | 36.38484 | -86.63781 | 3636 ft | 225 kts | 131° |
| 2026-05-06 00:25 | 36.37332 | -86.62657 | 3555 ft | 203 kts | 160° |
| 2026-05-06 00:25 | 36.36040 | -86.62055 | 3488 ft | 193 kts | 165° |
| 2026-05-06 00:25 | 36.34801 | -86.61547 | 3400 ft | 184 kts | 165° |
| 2026-05-06 00:26 | 36.33609 | -86.61068 | 3321 ft | 176 kts | 165° |
| 2026-05-06 00:26 | 36.32447 | -86.60726 | 3322 ft | 169 kts | 179° |
| 2026-05-06 00:26 | 36.31305 | -86.60961 | 3329 ft | 167 kts | 199° |
| 2026-05-06 00:26 | 36.30201 | -86.61398 | 3330 ft | 166 kts | 199° |
| 2026-05-06 00:27 | 36.29115 | -86.61825 | 3330 ft | 166 kts | 198° |
| 2026-05-06 00:27 | 36.28017 | -86.62258 | 3324 ft | 166 kts | 198° |
| 2026-05-06 00:27 | 36.26917 | -86.62691 | 3203 ft | 166 kts | 198° |
| 2026-05-06 00:27 | 36.25822 | -86.63123 | 3020 ft | 165 kts | 198° |
| 2026-05-06 00:28 | 36.24727 | -86.63554 | 2816 ft | 165 kts | 198° |
| 2026-05-06 00:28 | 36.23629 | -86.63986 | 2598 ft | 165 kts | 197° |
| 2026-05-06 00:28 | 36.22537 | -86.64416 | 2380 ft | 165 kts | 198° |
| 2026-05-06 00:28 | 36.21451 | -86.64843 | 2164 ft | 162 kts | 197° |
| 2026-05-06 00:29 | 36.20434 | -86.65243 | 1957 ft | 147 kts | 197° |
| 2026-05-06 00:29 | 36.19488 | -86.65615 | 1770 ft | 139 kts | 197° |
| 2026-05-06 00:29 | 36.18579 | -86.65972 | 1588 ft | 135 kts | 197° |
| 2026-05-06 00:29 | 36.17701 | -86.66311 | 1423 ft | 133 kts | 196° |
| 2026-05-06 00:30 | 36.16818 | -86.66662 | 1240 ft | 133 kts | 198° |
| 2026-05-06 00:30 | 36.15941 | -86.67019 | 1059 ft | 133 kts | 198° |
| 2026-05-06 00:30 | 36.15057 | -86.67367 | 905 ft | 133 kts | 197° |
| 2026-05-06 00:30 | 36.14170 | -86.67709 | 683 ft | 133 kts | 197° |
| 2026-05-06 00:31 | 36.13290 | -86.68052 | 577 ft | 124 kts | 197° |
| 2026-05-06 00:31 | 36.12635 | -86.68307 | 578 ft | 63 kts | 197° |
| 2026-05-06 00:31 | 36.12327 | -86.68428 | 572 ft | 42 kts | 198° |
| 2026-05-06 00:31 | 36.12161 | -86.68462 | 573 ft | 15 kts | 123° |
| 2026-05-06 00:32 | 36.12133 | -86.68355 | 574 ft | 2 kts | 107° |
| 2026-05-06 00:32 | 36.12132 | -86.68350 | 575 ft | 0 kts | 107° |
| 2026-05-06 00:33 | 36.12130 | -86.68346 | 578 ft | 0 kts | 107° |
| 2026-05-06 00:33 | 36.12128 | -86.68337 | 575 ft | 2 kts | 104° |
| 2026-05-06 00:33 | 36.12149 | -86.68295 | 575 ft | 9 kts | 31° |
| 2026-05-06 00:33 | 36.12219 | -86.68265 | 575 ft | 13 kts | 17° |
| 2026-05-06 00:34 | 36.12310 | -86.68232 | 575 ft | 15 kts | 16° |
| 2026-05-06 00:34 | 36.12414 | -86.68194 | 575 ft | 16 kts | 16° |
| 2026-05-06 00:34 | 36.12527 | -86.68154 | 577 ft | 18 kts | 16° |
| 2026-05-06 00:34 | 36.12645 | -86.68112 | 575 ft | 18 kts | 16° |
| 2026-05-06 00:35 | 36.12753 | -86.68072 | 575 ft | 15 kts | 16° |
| 2026-05-06 00:35 | 36.12861 | -86.68033 | 575 ft | 17 kts | 17° |
| 2026-05-06 00:35 | 36.12982 | -86.67986 | 574 ft | 19 kts | 18° |
| 2026-05-06 00:35 | 36.13114 | -86.67934 | 575 ft | 21 kts | 17° |
| 2026-05-06 00:36 | 36.13256 | -86.67879 | 575 ft | 22 kts | 18° |
| 2026-05-06 00:36 | 36.13402 | -86.67821 | 575 ft | 20 kts | 18° |
| 2026-05-06 00:36 | 36.13510 | -86.67778 | 575 ft | 14 kts | 24° |
| 2026-05-06 00:36 | 36.13513 | -86.67673 | 575 ft | 14 kts | 110° |
| 2026-05-06 00:37 | 36.13480 | -86.67554 | 575 ft | 15 kts | 107° |
| 2026-05-06 00:37 | 36.13450 | -86.67437 | 577 ft | 12 kts | 108° |
| 2026-05-06 00:37 | 36.13424 | -86.67336 | 575 ft | 12 kts | 108° |
| 2026-05-06 00:37 | 36.13400 | -86.67245 | 575 ft | 10 kts | 107° |
| 2026-05-06 00:38 | 36.13381 | -86.67182 | 575 ft | 7 kts | 127° |
| 2026-05-06 00:38 | 36.13359 | -86.67181 | 579 ft | 3 kts | 200° |
| 2026-05-06 00:38 | 36.13340 | -86.67194 | 575 ft | 0 kts | 210° |
| 2026-05-06 00:38 | 36.13337 | -86.67197 | 575 ft | 0 kts | 211° |